createdAt,value
2024-01-04T00:00:00.190Z, 971
2024-01-04T00:02:00.082Z, 970
2024-01-04T00:04:00.115Z, 971
2024-01-04T00:06:00.130Z, 971
2024-01-04T00:08:00.233Z, 971
2024-01-04T00:10:00.149Z, 971
2024-01-04T00:12:00.143Z, 971
2024-01-04T00:14:00.109Z, 971
2024-01-04T00:16:00.127Z, 971
2024-01-04T00:18:00.232Z, 971
2024-01-04T00:20:00.139Z, 971
2024-01-04T00:22:00.100Z, 971
2024-01-04T00:24:00.142Z, 971
2024-01-04T00:26:00.091Z, 971
2024-01-04T00:28:00.075Z, 971
2024-01-04T00:30:00.176Z, 971
2024-01-04T00:32:00.087Z, 971
2024-01-04T00:34:00.321Z, 971
2024-01-04T00:36:00.139Z, 971
2024-01-04T00:38:00.086Z, 971
2024-01-04T00:40:00.286Z, 971
2024-01-04T00:42:00.131Z, 971
2024-01-04T00:44:00.098Z, 970
2024-01-04T00:46:00.099Z, 971
2024-01-04T00:48:00.308Z, 971
2024-01-04T00:50:00.100Z, 971
2024-01-04T00:52:00.106Z, 971
2024-01-04T00:54:00.232Z, 971
2024-01-04T00:56:00.097Z, 971
2024-01-04T00:58:00.092Z, 971
2024-01-04T01:00:00.190Z, 971
2024-01-04T01:02:00.100Z, 971
2024-01-04T01:04:00.149Z, 971
2024-01-04T01:06:00.195Z, 971
2024-01-04T01:08:00.094Z, 971
2024-01-04T01:10:00.221Z, 971
2024-01-04T01:12:00.174Z, 971
2024-01-04T01:14:00.081Z, 971
2024-01-04T01:16:00.408Z, 971
2024-01-04T01:18:00.258Z, 971
2024-01-04T01:20:00.132Z, 971
2024-01-04T01:22:00.091Z, 971
2024-01-04T01:24:00.169Z, 971
2024-01-04T01:26:00.096Z, 971
2024-01-04T01:28:00.098Z, 971
2024-01-04T01:30:00.196Z, 971
2024-01-04T01:32:00.118Z, 971
2024-01-04T01:34:00.192Z, 971
2024-01-04T01:36:00.174Z, 971
2024-01-04T01:38:00.164Z, 971
2024-01-04T01:40:00.148Z, 971
2024-01-04T01:42:00.151Z, 971
2024-01-04T01:44:00.113Z, 971
2024-01-04T01:46:00.166Z, 972
2024-01-04T01:48:00.302Z, 971
2024-01-04T01:50:00.132Z, 972
2024-01-04T01:52:00.108Z, 972
2024-01-04T01:54:00.141Z, 972
2024-01-04T01:56:00.087Z, 972
2024-01-04T01:58:00.108Z, 972
2024-01-04T02:00:00.266Z, 972
2024-01-04T02:02:00.079Z, 972
2024-01-04T02:04:00.124Z, 972
2024-01-04T02:06:00.334Z, 972
2024-01-04T02:08:00.085Z, 972
2024-01-04T02:10:00.121Z, 972
2024-01-04T02:12:00.124Z, 972
2024-01-04T02:14:00.141Z, 972
2024-01-04T02:16:00.096Z, 972
2024-01-04T02:18:00.522Z, 973
2024-01-04T02:20:00.136Z, 973
2024-01-04T02:22:00.102Z, 972
2024-01-04T02:24:00.196Z, 973
2024-01-04T02:26:00.085Z, 973
2024-01-04T02:28:00.080Z, 973
2024-01-04T02:30:00.214Z, 973
2024-01-04T02:32:00.240Z, 973
2024-01-04T02:34:00.204Z, 973
2024-01-04T02:36:00.138Z, 973
2024-01-04T02:38:00.189Z, 973
2024-01-04T02:40:00.110Z, 973
2024-01-04T02:42:00.150Z, 973
2024-01-04T02:44:00.089Z, 973
2024-01-04T02:46:00.083Z, 973
2024-01-04T02:48:00.338Z, 973
2024-01-04T02:50:00.142Z, 973
2024-01-04T02:52:00.115Z, 973
2024-01-04T02:54:00.161Z, 973
2024-01-04T02:56:00.105Z, 973
2024-01-04T02:58:00.102Z, 973
2024-01-04T03:00:00.222Z, 973
2024-01-04T03:02:00.127Z, 973
2024-01-04T03:04:00.215Z, 973
2024-01-04T03:06:00.136Z, 973
2024-01-04T03:08:00.121Z, 973
2024-01-04T03:10:00.160Z, 973
2024-01-04T03:12:00.139Z, 973
2024-01-04T03:14:00.149Z, 973
2024-01-04T03:16:00.140Z, 973
2024-01-04T03:18:00.170Z, 973
2024-01-04T03:20:00.247Z, 973
2024-01-04T03:22:00.113Z, 973
2024-01-04T03:24:00.205Z, 973
2024-01-04T03:26:00.235Z, 974
2024-01-04T03:28:00.111Z, 973
2024-01-04T03:30:00.320Z, 973
2024-01-04T03:32:00.112Z, 973
2024-01-04T03:34:00.292Z, 974
2024-01-04T03:36:00.261Z, 974
2024-01-04T03:38:00.125Z, 974
2024-01-04T03:40:00.161Z, 974
2024-01-04T03:42:00.306Z, 974
2024-01-04T03:44:00.141Z, 974
2024-01-04T03:46:00.118Z, 974
2024-01-04T03:48:00.276Z, 974
2024-01-04T03:50:00.269Z, 974
2024-01-04T03:52:00.954Z, 974
2024-01-04T03:54:00.211Z, 974
2024-01-04T03:56:00.113Z, 974
2024-01-04T03:58:00.098Z, 974
2024-01-04T04:00:00.307Z, 974
2024-01-04T04:02:00.089Z, 974
2024-01-04T04:04:00.234Z, 974
2024-01-04T04:06:00.310Z, 974
2024-01-04T04:08:00.092Z, 974
2024-01-04T04:10:00.166Z, 974
2024-01-04T04:12:00.164Z, 974
2024-01-04T04:14:00.075Z, 974
2024-01-04T04:16:00.060Z, 974
2024-01-04T04:18:00.229Z, 974
2024-01-04T04:20:00.092Z, 974
2024-01-04T04:22:00.080Z, 974
2024-01-04T04:24:00.125Z, 974
2024-01-04T04:26:00.065Z, 974
2024-01-04T04:28:00.062Z, 974
2024-01-04T04:30:00.374Z, 974
2024-01-04T04:32:00.090Z, 974
2024-01-04T04:34:00.319Z, 974
2024-01-04T04:36:02.165Z, 974
2024-01-04T04:38:00.075Z, 975
2024-01-04T04:40:00.094Z, 975
2024-01-04T04:42:00.133Z, 975
2024-01-04T04:44:00.074Z, 975
2024-01-04T04:46:00.127Z, 975
2024-01-04T04:48:00.199Z, 975
2024-01-04T04:50:00.170Z, 975
2024-01-04T04:52:00.094Z, 975
2024-01-04T04:54:00.147Z, 975
2024-01-04T04:56:00.081Z, 975
2024-01-04T04:58:00.084Z, 975
2024-01-04T05:00:00.187Z, 975
2024-01-04T05:02:00.074Z, 975
2024-01-04T05:04:00.103Z, 975
2024-01-04T05:06:00.159Z, 975
2024-01-04T05:08:00.081Z, 975
2024-01-04T05:10:00.141Z, 975
2024-01-04T05:12:00.145Z, 975
2024-01-04T05:14:00.083Z, 975
2024-01-04T05:16:00.091Z, 975
2024-01-04T05:18:00.319Z, 975
2024-01-04T05:20:00.122Z, 975
2024-01-04T05:22:00.085Z, 975
2024-01-04T05:24:00.302Z, 975
2024-01-04T05:26:00.093Z, 975
2024-01-04T05:28:00.128Z, 975
2024-01-04T05:30:00.342Z, 975
2024-01-04T05:32:00.447Z, 975
2024-01-04T05:34:00.329Z, 975
2024-01-04T05:36:00.181Z, 975
2024-01-04T05:38:00.162Z, 976
2024-01-04T05:40:01.324Z, 975
2024-01-04T05:42:00.195Z, 976
2024-01-04T05:44:00.079Z, 976
2024-01-04T05:46:00.081Z, 976
2024-01-04T05:48:00.252Z, 976
2024-01-04T05:50:00.165Z, 976
2024-01-04T05:52:00.154Z, 976
2024-01-04T05:54:00.312Z, 976
2024-01-04T05:56:00.112Z, 976
2024-01-04T05:58:00.192Z, 976
2024-01-04T06:00:00.517Z, 976
2024-01-04T06:02:00.191Z, 976
2024-01-04T06:04:00.211Z, 976
2024-01-04T06:06:00.502Z, 976
2024-01-04T06:08:00.272Z, 976
2024-01-04T06:10:00.344Z, 976
2024-01-04T06:12:00.516Z, 976
2024-01-04T06:14:00.119Z, 976
2024-01-04T06:16:00.144Z, 976
2024-01-04T06:18:00.252Z, 976
2024-01-04T06:20:00.144Z, 976
2024-01-04T06:22:00.389Z, 976
2024-01-04T06:24:00.152Z, 976
2024-01-04T06:26:00.129Z, 976
2024-01-04T06:28:00.263Z, 976
2024-01-04T06:30:00.217Z, 976
2024-01-04T06:32:00.089Z, 976
2024-01-04T06:34:00.233Z, 976
2024-01-04T06:36:00.238Z, 976
2024-01-04T06:38:00.082Z, 976
2024-01-04T06:40:00.098Z, 976
2024-01-04T06:42:00.163Z, 976
2024-01-04T06:44:00.107Z, 976
2024-01-04T06:46:00.118Z, 976
2024-01-04T06:48:00.254Z, 976
2024-01-04T06:50:07.664Z, 976
2024-01-04T06:52:00.082Z, 976
2024-01-04T06:54:01.311Z, 976
2024-01-04T06:56:00.089Z, 976
2024-01-04T06:58:00.083Z, 976
2024-01-04T07:00:00.182Z, 976
2024-01-04T07:02:00.093Z, 976
2024-01-04T07:04:01.730Z, 976
2024-01-04T07:06:00.180Z, 977
2024-01-04T07:08:00.180Z, 977
2024-01-04T07:10:00.099Z, 977
2024-01-04T07:12:00.105Z, 976
2024-01-04T07:14:00.089Z, 977
2024-01-04T07:16:00.075Z, 977
2024-01-04T07:18:00.330Z, 977
2024-01-04T07:20:00.131Z, 977
2024-01-04T07:22:00.090Z, 977
2024-01-04T07:24:00.180Z, 977
2024-01-04T07:26:00.096Z, 977
2024-01-04T07:28:00.233Z, 977
2024-01-04T07:30:00.250Z, 977
2024-01-04T07:32:00.208Z, 977
2024-01-04T07:34:00.754Z, 977
2024-01-04T07:36:00.744Z, 977
2024-01-04T07:38:00.143Z, 977
2024-01-04T07:40:00.156Z, 977
2024-01-04T07:42:00.181Z, 977
2024-01-04T07:44:00.114Z, 977
2024-01-04T07:46:00.111Z, 977
2024-01-04T07:48:00.406Z, 977
2024-01-04T07:50:00.211Z, 977
2024-01-04T07:52:00.103Z, 977
2024-01-04T07:54:00.148Z, 977
2024-01-04T07:56:00.077Z, 977
2024-01-04T07:58:00.100Z, 977
2024-01-04T08:00:00.283Z, 977
2024-01-04T08:02:00.073Z, 977
2024-01-04T08:04:00.179Z, 977
2024-01-04T08:06:00.243Z, 977
2024-01-04T08:08:00.094Z, 977
2024-01-04T08:10:00.112Z, 977
2024-01-04T08:12:00.154Z, 977
2024-01-04T08:14:00.122Z, 977
2024-01-04T08:16:00.109Z, 977
2024-01-04T08:18:00.771Z, 977
2024-01-04T08:20:00.272Z, 977
2024-01-04T08:22:00.111Z, 977
2024-01-04T08:24:00.173Z, 977
2024-01-04T08:26:00.088Z, 977
2024-01-04T08:28:00.221Z, 977
2024-01-04T08:30:00.266Z, 977
2024-01-04T08:32:00.105Z, 977
2024-01-04T08:34:00.253Z, 977
2024-01-04T08:36:00.159Z, 977
2024-01-04T08:38:00.099Z, 977
2024-01-04T08:40:00.251Z, 977
2024-01-04T08:42:00.176Z, 977
2024-01-04T08:44:00.098Z, 977
2024-01-04T08:46:00.089Z, 978
2024-01-04T08:48:00.219Z, 978
2024-01-04T08:50:00.417Z, 978
2024-01-04T08:52:00.073Z, 978
2024-01-04T08:54:00.178Z, 978
2024-01-04T08:56:00.103Z, 978
2024-01-04T08:58:00.203Z, 978
2024-01-04T09:00:00.389Z, 978
2024-01-04T09:02:00.082Z, 978
2024-01-04T09:04:00.756Z, 978
2024-01-04T09:06:00.148Z, 978
2024-01-04T09:08:00.080Z, 978
2024-01-04T09:10:00.099Z, 978
2024-01-04T09:12:00.199Z, 978
2024-01-04T09:14:00.088Z, 978
2024-01-04T09:16:00.091Z, 978
2024-01-04T09:18:00.241Z, 978
2024-01-04T09:20:00.210Z, 978
2024-01-04T09:22:00.085Z, 978
2024-01-04T09:24:00.188Z, 978
2024-01-04T09:26:00.082Z, 978
2024-01-04T09:28:00.086Z, 978
2024-01-04T09:30:00.228Z, 978
2024-01-04T09:32:00.086Z, 978
2024-01-04T09:34:00.197Z, 978
2024-01-04T09:36:00.158Z, 978
2024-01-04T09:38:00.105Z, 978
2024-01-04T09:40:00.131Z, 978
2024-01-04T09:42:00.161Z, 978
2024-01-04T09:44:00.107Z, 979
2024-01-04T09:46:00.083Z, 979
2024-01-04T09:48:00.216Z, 979
2024-01-04T09:50:00.255Z, 979
2024-01-04T09:52:00.091Z, 979
2024-01-04T09:54:00.144Z, 979
2024-01-04T09:56:00.087Z, 979
2024-01-04T09:58:00.091Z, 979
2024-01-04T10:00:00.248Z, 979
2024-01-04T10:02:00.086Z, 979
2024-01-04T10:04:00.223Z, 979
2024-01-04T10:06:00.229Z, 979
2024-01-04T10:08:00.086Z, 979
2024-01-04T10:10:01.468Z, 979
2024-01-04T10:12:00.291Z, 979
2024-01-04T10:14:00.080Z, 979
2024-01-04T10:16:00.078Z, 979
2024-01-04T10:18:00.347Z, 979
2024-01-04T10:20:00.183Z, 979
2024-01-04T10:22:00.083Z, 979
2024-01-04T10:24:00.364Z, 979
2024-01-04T10:26:00.510Z, 979
2024-01-04T10:28:00.334Z, 979
2024-01-04T10:30:00.278Z, 979
2024-01-04T10:32:00.081Z, 979
2024-01-04T10:34:00.150Z, 979
2024-01-04T10:36:00.174Z, 979
2024-01-04T10:38:00.127Z, 979
2024-01-04T10:40:00.148Z, 979
2024-01-04T10:42:00.155Z, 979
2024-01-04T10:44:00.093Z, 979
2024-01-04T10:46:00.099Z, 979
2024-01-04T10:48:00.506Z, 979
2024-01-04T10:50:00.212Z, 979
2024-01-04T10:52:00.101Z, 979
2024-01-04T10:54:00.142Z, 979
2024-01-04T10:56:00.090Z, 979
2024-01-04T10:58:00.123Z, 979
2024-01-04T11:00:00.283Z, 979
2024-01-04T11:02:00.345Z, 979
2024-01-04T11:04:00.146Z, 979
2024-01-04T11:06:00.142Z, 979
2024-01-04T11:08:00.080Z, 979
2024-01-04T11:10:00.142Z, 979
2024-01-04T11:12:00.222Z, 979
2024-01-04T11:14:00.103Z, 979
2024-01-04T11:16:00.073Z, 979
2024-01-04T11:18:00.230Z, 979
2024-01-04T11:20:00.178Z, 980
2024-01-04T11:22:00.081Z, 979
2024-01-04T11:24:00.140Z, 979
2024-01-04T11:26:00.090Z, 979
2024-01-04T11:28:00.086Z, 979
2024-01-04T11:30:00.215Z, 979
2024-01-04T11:32:00.097Z, 979
2024-01-04T11:34:00.239Z, 980
2024-01-04T11:36:00.136Z, 980
2024-01-04T11:38:00.096Z, 979
2024-01-04T11:40:00.146Z, 980
2024-01-04T11:42:00.117Z, 980
2024-01-04T11:44:00.237Z, 980
2024-01-04T11:46:00.127Z, 980
2024-01-04T11:48:00.198Z, 979
2024-01-04T11:50:08.900Z, 980
2024-01-04T11:52:00.086Z, 980
2024-01-04T11:54:00.234Z, 979
2024-01-04T11:56:00.102Z, 980
2024-01-04T11:58:00.086Z, 979
2024-01-04T12:00:00.181Z, 979
2024-01-04T12:02:00.186Z, 979
2024-01-04T12:04:00.110Z, 979
2024-01-04T12:06:00.254Z, 979
2024-01-04T12:08:00.078Z, 979
2024-01-04T12:10:00.172Z, 979
2024-01-04T12:12:00.208Z, 979
2024-01-04T12:14:00.101Z, 979
2024-01-04T12:16:00.097Z, 979
2024-01-04T12:18:00.424Z, 979
2024-01-04T12:20:00.243Z, 979
2024-01-04T12:22:00.177Z, 979
2024-01-04T12:24:00.242Z, 979
2024-01-04T12:26:00.089Z, 979
2024-01-04T12:28:00.092Z, 979
2024-01-04T12:30:00.240Z, 979
2024-01-04T12:32:00.153Z, 979
2024-01-04T12:34:00.636Z, 979
2024-01-04T12:36:00.357Z, 979
2024-01-04T12:38:00.101Z, 979
2024-01-04T12:40:00.146Z, 979
2024-01-04T12:42:00.142Z, 979
2024-01-04T12:44:00.090Z, 979
2024-01-04T12:46:00.079Z, 979
2024-01-04T12:48:00.297Z, 979
2024-01-04T12:50:00.279Z, 979
2024-01-04T12:52:00.101Z, 979
2024-01-04T12:54:00.126Z, 979
2024-01-04T13:06:45.019Z, 979
2024-01-04T13:06:45.138Z, 979
2024-01-04T13:06:45.244Z, 979
2024-01-04T13:06:45.652Z, 979
2024-01-04T13:06:45.824Z, 979
2024-01-04T13:06:46.137Z, 979
2024-01-04T13:08:00.094Z, 980
2024-01-04T13:10:00.117Z, 980
2024-01-04T13:12:00.177Z, 980
2024-01-04T13:14:00.087Z, 980
2024-01-04T13:16:00.093Z, 980
2024-01-04T13:18:00.254Z, 979
2024-01-04T13:20:00.164Z, 980
2024-01-04T13:22:00.114Z, 980
2024-01-04T13:24:00.128Z, 980
2024-01-04T13:26:00.256Z, 980
2024-01-04T13:28:00.088Z, 980
2024-01-04T13:30:00.347Z, 980
2024-01-04T13:32:00.099Z, 980
2024-01-04T13:34:00.408Z, 980
2024-01-04T13:36:00.165Z, 980
2024-01-04T13:38:00.105Z, 980
2024-01-04T13:40:00.097Z, 980
2024-01-04T13:42:00.238Z, 980
2024-01-04T13:44:00.074Z, 980
2024-01-04T13:46:00.077Z, 980
2024-01-04T13:48:00.362Z, 980
2024-01-04T13:50:00.258Z, 980
2024-01-04T13:52:00.086Z, 980
2024-01-04T13:54:00.198Z, 980
2024-01-04T13:56:00.100Z, 980
2024-01-04T13:58:00.079Z, 980
2024-01-04T14:00:00.278Z, 980
2024-01-04T14:02:00.078Z, 980
2024-01-04T14:04:00.298Z, 980
2024-01-04T14:06:00.265Z, 980
2024-01-04T14:08:00.086Z, 980
2024-01-04T14:10:00.162Z, 980
2024-01-04T14:12:00.171Z, 980
2024-01-04T14:14:00.082Z, 980
2024-01-04T14:16:00.161Z, 980
2024-01-04T14:18:00.115Z, 980
2024-01-04T14:20:00.312Z, 980
2024-01-04T14:22:00.073Z, 980
2024-01-04T14:24:00.149Z, 980
2024-01-04T14:26:00.240Z, 980
2024-01-04T14:28:00.099Z, 980
2024-01-04T14:30:00.200Z, 980
2024-01-04T14:32:00.081Z, 980
2024-01-04T14:34:00.290Z, 980
2024-01-04T14:36:00.210Z, 980
2024-01-04T14:38:00.080Z, 980
2024-01-04T14:40:00.155Z, 980
2024-01-04T14:42:00.238Z, 980
2024-01-04T14:44:00.078Z, 980
2024-01-04T14:46:00.075Z, 980
2024-01-04T14:48:00.222Z, 980
2024-01-04T14:50:00.260Z, 980
2024-01-04T14:52:00.094Z, 980
2024-01-04T14:54:00.136Z, 980
2024-01-04T14:56:00.119Z, 980
2024-01-04T14:58:00.098Z, 980
2024-01-04T15:00:00.441Z, 980
2024-01-04T15:02:00.092Z, 980
2024-01-04T15:04:00.146Z, 980
2024-01-04T15:06:00.280Z, 980
2024-01-04T15:08:00.097Z, 980
2024-01-04T15:10:00.141Z, 980
2024-01-04T15:12:00.173Z, 980
2024-01-04T15:14:00.108Z, 980
2024-01-04T15:16:00.158Z, 980
2024-01-04T15:18:00.257Z, 980
2024-01-04T15:20:00.233Z, 980
2024-01-04T15:22:00.080Z, 980
2024-01-04T15:24:00.132Z, 980
2024-01-04T15:26:00.096Z, 980
2024-01-04T15:28:00.096Z, 980
2024-01-04T15:30:00.353Z, 980
2024-01-04T15:32:00.077Z, 980
2024-01-04T15:34:00.231Z, 980
2024-01-04T15:36:00.350Z, 980
2024-01-04T15:38:00.097Z, 980
2024-01-04T15:40:00.220Z, 980
2024-01-04T15:42:00.126Z, 980
2024-01-04T15:44:00.089Z, 980
2024-01-04T15:46:00.091Z, 980
2024-01-04T15:48:00.259Z, 980
2024-01-04T15:50:00.168Z, 980
2024-01-04T15:52:00.073Z, 980
2024-01-04T15:54:00.156Z, 981
2024-01-04T15:56:00.076Z, 981
2024-01-04T15:58:00.075Z, 980
2024-01-04T16:00:00.237Z, 981
2024-01-04T16:02:00.510Z, 980
2024-01-04T16:04:00.140Z, 981
2024-01-04T16:06:00.236Z, 981
2024-01-04T16:08:00.086Z, 981
2024-01-04T16:10:00.140Z, 981
2024-01-04T16:12:00.217Z, 981
2024-01-04T16:14:00.097Z, 981
2024-01-04T16:16:00.083Z, 981
2024-01-04T16:18:00.221Z, 981
2024-01-04T16:20:00.160Z, 981
2024-01-04T16:22:00.087Z, 981
2024-01-04T16:24:00.153Z, 981
2024-01-04T16:26:00.085Z, 981
2024-01-04T16:28:00.129Z, 981
2024-01-04T16:30:00.192Z, 981
2024-01-04T16:32:00.082Z, 981
2024-01-04T16:34:00.257Z, 981
2024-01-04T16:36:00.168Z, 981
2024-01-04T16:38:00.086Z, 981
2024-01-04T16:40:00.116Z, 981
2024-01-04T16:42:00.230Z, 981
2024-01-04T16:44:00.090Z, 981
2024-01-04T16:46:00.114Z, 981
2024-01-04T16:48:00.311Z, 981
2024-01-04T16:50:00.276Z, 981
2024-01-04T16:52:00.103Z, 981
2024-01-04T16:54:00.290Z, 981
2024-01-04T16:56:00.094Z, 981
2024-01-04T16:58:00.080Z, 981
2024-01-04T17:00:00.237Z, 981
2024-01-04T17:02:00.092Z, 981
2024-01-04T17:04:02.092Z, 981
2024-01-04T17:06:00.249Z, 981
2024-01-04T17:08:00.118Z, 981
2024-01-04T17:10:00.129Z, 981
2024-01-04T17:12:00.125Z, 981
2024-01-04T17:14:00.090Z, 981
2024-01-04T17:16:00.092Z, 981
2024-01-04T17:18:00.186Z, 981
2024-01-04T17:20:00.312Z, 981
2024-01-04T17:22:00.081Z, 981
2024-01-04T17:24:00.169Z, 981
2024-01-04T17:26:00.134Z, 981
2024-01-04T17:28:00.092Z, 981
2024-01-04T17:30:00.240Z, 981
2024-01-04T17:32:00.080Z, 981
2024-01-04T17:34:00.416Z, 981
2024-01-04T17:36:15.840Z, 981
2024-01-04T17:38:00.082Z, 981
2024-01-04T17:40:00.115Z, 981
2024-01-04T17:42:00.315Z, 981
2024-01-04T17:44:00.124Z, 981
2024-01-04T17:46:00.080Z, 981
2024-01-04T17:48:00.174Z, 981
2024-01-04T17:50:00.151Z, 981
2024-01-04T17:52:00.085Z, 981
2024-01-04T17:54:00.176Z, 981
2024-01-04T17:56:00.095Z, 981
2024-01-04T17:58:00.097Z, 981
2024-01-04T18:00:00.313Z, 981
2024-01-04T18:02:00.077Z, 981
2024-01-04T18:04:00.261Z, 981
2024-01-04T18:06:00.395Z, 981
2024-01-04T18:08:00.087Z, 981
2024-01-04T18:10:00.445Z, 981
2024-01-04T18:12:00.236Z, 981
2024-01-04T18:14:00.134Z, 981
2024-01-04T18:16:00.081Z, 981
2024-01-04T18:18:00.225Z, 981
2024-01-04T18:20:00.225Z, 981
2024-01-04T18:22:00.080Z, 981
2024-01-04T18:24:00.156Z, 981
2024-01-04T18:26:00.136Z, 981
2024-01-04T18:28:00.086Z, 981
2024-01-04T18:30:00.250Z, 981
2024-01-04T18:32:00.112Z, 981
2024-01-04T18:34:00.223Z, 981
2024-01-04T18:36:00.233Z, 981
2024-01-04T18:38:00.093Z, 981
2024-01-04T18:40:00.106Z, 981
2024-01-04T18:42:00.135Z, 981
2024-01-04T18:44:00.119Z, 981
2024-01-04T18:46:00.082Z, 981
2024-01-04T18:48:00.383Z, 981
2024-01-04T18:50:00.187Z, 981
2024-01-04T18:52:00.097Z, 981
2024-01-04T18:54:00.133Z, 981
2024-01-04T18:56:00.078Z, 981
2024-01-04T18:58:00.099Z, 981
2024-01-04T19:00:00.288Z, 981
2024-01-04T19:02:00.081Z, 981
2024-01-04T19:04:00.247Z, 981
2024-01-04T19:06:00.158Z, 981
2024-01-04T19:08:00.081Z, 981
2024-01-04T19:10:00.134Z, 981
2024-01-04T19:12:00.231Z, 981
2024-01-04T19:14:00.098Z, 981
2024-01-04T19:16:00.945Z, 981
2024-01-04T19:18:00.229Z, 981
2024-01-04T19:20:00.177Z, 981
2024-01-04T19:22:00.092Z, 981
2024-01-04T19:24:00.147Z, 981
2024-01-04T19:26:00.099Z, 981
2024-01-04T19:28:00.091Z, 980
2024-01-04T19:30:00.252Z, 981
2024-01-04T19:32:00.101Z, 980
2024-01-04T19:34:00.200Z, 980
2024-01-04T19:36:00.180Z, 980
2024-01-04T19:38:00.106Z, 980
2024-01-04T19:40:00.128Z, 980
2024-01-04T19:42:00.139Z, 980
2024-01-04T19:44:00.082Z, 980
2024-01-04T19:46:04.234Z, 980
2024-01-04T19:48:00.209Z, 980
2024-01-04T19:50:00.260Z, 980
2024-01-04T19:52:00.127Z, 980
2024-01-04T19:54:00.281Z, 980
2024-01-04T19:56:00.110Z, 980
2024-01-04T19:58:00.082Z, 980
2024-01-04T20:00:00.249Z, 980
2024-01-04T20:02:00.110Z, 980
2024-01-04T20:04:00.144Z, 980
2024-01-04T20:06:00.210Z, 980
2024-01-04T20:08:00.096Z, 980
2024-01-04T20:10:00.160Z, 980
2024-01-04T20:12:00.189Z, 980
2024-01-04T20:14:00.114Z, 980
2024-01-04T20:16:00.125Z, 980
2024-01-04T20:18:00.336Z, 980
2024-01-04T20:20:00.175Z, 980
2024-01-04T20:22:00.095Z, 980
2024-01-04T20:24:00.186Z, 980
2024-01-04T20:26:00.218Z, 980
2024-01-04T20:28:00.084Z, 980
2024-01-04T20:30:00.194Z, 980
2024-01-04T20:32:00.106Z, 980
2024-01-04T20:34:00.565Z, 980
2024-01-04T20:36:00.137Z, 980
2024-01-04T20:38:00.093Z, 980
2024-01-04T20:40:00.165Z, 980
2024-01-04T20:42:00.218Z, 980
2024-01-04T20:44:00.143Z, 980
2024-01-04T20:46:00.102Z, 980
2024-01-04T20:48:00.255Z, 980
2024-01-04T20:50:00.134Z, 980
2024-01-04T20:52:00.328Z, 980
2024-01-04T20:54:00.166Z, 980
2024-01-04T20:56:00.081Z, 980
2024-01-04T20:58:00.093Z, 980
2024-01-04T21:00:00.420Z, 980
2024-01-04T21:02:00.120Z, 980
2024-01-04T21:04:00.206Z, 980
2024-01-04T21:06:00.407Z, 980
2024-01-04T21:08:00.114Z, 980
2024-01-04T21:10:00.179Z, 980
2024-01-04T21:12:00.110Z, 980
2024-01-04T21:14:00.101Z, 980
2024-01-04T21:16:00.090Z, 980
2024-01-04T21:18:00.265Z, 980
2024-01-04T21:20:00.209Z, 980
2024-01-04T21:22:00.108Z, 980
2024-01-04T21:24:00.143Z, 980
2024-01-04T21:26:00.120Z, 980
2024-01-04T21:28:00.107Z, 980
2024-01-04T21:30:00.243Z, 980
2024-01-04T21:32:00.097Z, 980
2024-01-04T21:34:00.457Z, 980
2024-01-04T21:36:00.152Z, 980
2024-01-04T21:38:00.092Z, 980
2024-01-04T21:40:00.134Z, 980
2024-01-04T21:42:00.143Z, 980
2024-01-04T21:44:00.120Z, 980
2024-01-04T21:46:00.097Z, 980
2024-01-04T21:48:00.397Z, 980
2024-01-04T21:50:00.312Z, 980
2024-01-04T21:52:00.095Z, 980
2024-01-04T21:54:00.336Z, 980
2024-01-04T21:56:00.083Z, 980
2024-01-04T21:58:00.085Z, 980
2024-01-04T22:00:00.153Z, 980
2024-01-04T22:02:00.096Z, 980
2024-01-04T22:04:00.109Z, 980
2024-01-04T22:06:00.187Z, 980
2024-01-04T22:08:00.080Z, 980
2024-01-04T22:10:01.302Z, 980
2024-01-04T22:12:01.861Z, 980
2024-01-04T22:14:00.130Z, 980
2024-01-04T22:16:00.104Z, 980
2024-01-04T22:18:00.242Z, 980
2024-01-04T22:20:00.169Z, 980
2024-01-04T22:22:00.269Z, 980
2024-01-04T22:24:00.167Z, 980
2024-01-04T22:26:00.101Z, 979
2024-01-04T22:28:00.098Z, 979
2024-01-04T22:30:00.293Z, 980
2024-01-04T22:32:00.098Z, 979
2024-01-04T22:34:00.302Z, 979
2024-01-04T22:36:00.166Z, 979
2024-01-04T22:38:00.084Z, 979
2024-01-04T22:40:00.119Z, 979
2024-01-04T22:42:00.149Z, 979
2024-01-04T22:44:00.119Z, 979
2024-01-04T22:46:00.094Z, 979
2024-01-04T22:48:00.267Z, 979
2024-01-04T22:50:00.280Z, 979
2024-01-04T22:52:00.395Z, 979
2024-01-04T22:54:00.128Z, 979
2024-01-04T22:56:00.229Z, 979
2024-01-04T22:58:00.111Z, 979
2024-01-04T23:00:00.490Z, 979
2024-01-04T23:02:00.101Z, 979
2024-01-04T23:04:00.244Z, 979
2024-01-04T23:06:00.296Z, 979
2024-01-04T23:08:00.431Z, 979
2024-01-04T23:10:00.159Z, 979
2024-01-04T23:12:00.425Z, 979
2024-01-04T23:14:00.148Z, 979
2024-01-04T23:16:00.438Z, 979
2024-01-04T23:18:02.009Z, 979
2024-01-04T23:20:00.438Z, 979
2024-01-04T23:22:00.393Z, 979
2024-01-04T23:24:00.238Z, 979
2024-01-04T23:26:00.602Z, 979
2024-01-04T23:28:00.089Z, 979
2024-01-04T23:30:00.278Z, 979
2024-01-04T23:32:00.113Z, 979
2024-01-04T23:34:00.392Z, 979
2024-01-04T23:36:00.171Z, 979
2024-01-04T23:38:00.179Z, 979
2024-01-04T23:40:00.136Z, 979
2024-01-04T23:42:00.235Z, 978
2024-01-04T23:44:00.088Z, 979
2024-01-04T23:46:00.105Z, 979
2024-01-04T23:48:00.319Z, 979
2024-01-04T23:50:00.306Z, 978
2024-01-04T23:52:00.849Z, 978
2024-01-04T23:54:00.231Z, 978
2024-01-04T23:56:00.146Z, 978
2024-01-04T23:58:00.169Z, 978
